TimeCST,TemperatureF,Dew PointF,Humidity,Sea Level PressureIn,VisibilityMPH,Wind Direction,Wind SpeedMPH,Gust SpeedMPH,PrecipitationIn,Events,Conditions,WindDirDegrees,DateUTC
12:53 AM,14.0,7.0,74,30.22,10.0,NNE,16.1,-,N/A,,Scattered Clouds,20,2012-11-29 06:53:00
1:53 AM,12.0,5.0,73,30.23,10.0,North,13.8,-,N/A,,Scattered Clouds,10,2012-11-29 07:53:00
2:53 AM,12.0,5.0,73,30.24,10.0,North,13.8,-,N/A,,Overcast,10,2012-11-29 08:53:00
3:53 AM,12.0,6.1,77,30.23,10.0,NNE,11.5,-,N/A,,Overcast,20,2012-11-29 09:53:00
4:53 AM,12.0,6.1,77,30.24,10.0,North,10.4,-,N/A,,Mostly Cloudy,10,2012-11-29 10:53:00
5:53 AM,12.0,5.0,73,30.25,10.0,NNE,15.0,-,N/A,,Mostly Cloudy,30,2012-11-29 11:53:00
6:53 AM,10.9,3.9,73,30.24,10.0,NNE,13.8,-,N/A,,Mostly Cloudy,20,2012-11-29 12:53:00
7:53 AM,10.0,3.9,76,30.26,10.0,NNE,9.2,-,N/A,,Scattered Clouds,20,2012-11-29 13:53:00
8:53 AM,10.0,3.9,76,30.29,10.0,NNE,12.7,-,N/A,,Overcast,20,2012-11-29 14:53:00
9:53 AM,12.9,6.1,74,30.29,10.0,NE,13.8,-,N/A,,Overcast,40,2012-11-29 15:53:00
10:53 AM,15.1,8.1,74,30.29,10.0,NE,12.7,-,N/A,,Overcast,40,2012-11-29 16:53:00
11:53 AM,16.0,9.0,74,30.27,10.0,NE,12.7,-,N/A,,Overcast,50,2012-11-29 17:53:00
12:53 PM,18.0,10.0,71,30.25,10.0,NE,12.7,-,N/A,,Overcast,50,2012-11-29 18:53:00
1:53 PM,19.0,8.1,62,30.25,10.0,ENE,11.5,-,N/A,,Overcast,70,2012-11-29 19:53:00
2:53 PM,19.0,9.0,65,30.22,10.0,NE,15.0,-,N/A,,Overcast,50,2012-11-29 20:53:00
3:53 PM,19.0,8.1,62,30.22,10.0,ENE,11.5,-,N/A,,Overcast,60,2012-11-29 21:53:00
4:53 PM,18.0,7.0,62,30.22,10.0,ENE,13.8,-,N/A,,Overcast,70,2012-11-29 22:53:00
5:53 PM,19.0,8.1,62,30.23,10.0,ENE,12.7,-,N/A,,Overcast,70,2012-11-29 23:53:00
6:53 PM,19.0,8.1,62,30.22,10.0,ENE,13.8,-,N/A,,Overcast,70,2012-11-30 00:53:00
7:53 PM,19.0,9.0,65,30.23,10.0,East,9.2,-,N/A,,Overcast,80,2012-11-30 01:53:00
8:53 PM,19.0,10.0,68,30.24,10.0,ENE,9.2,-,N/A,,Overcast,70,2012-11-30 02:53:00
9:53 PM,19.0,10.9,71,30.23,10.0,East,10.4,-,N/A,,Overcast,80,2012-11-30 03:53:00
10:53 PM,19.0,12.0,74,30.24,10.0,ENE,10.4,-,N/A,,Overcast,70,2012-11-30 04:53:00
11:53 PM,19.0,12.0,74,30.24,10.0,East,10.4,-,N/A,,Overcast,90,2012-11-30 05:53:00